Morinville, Canada
Current Conditions -  °F | °C
As of 11:00 AM on Sunday 21 Dec 2014 (Local Time) from CYED Reporting Station
Scattered Clouds Scattered Clouds  
Wind Chill: -8°   Ceiling: Unl
Heat Index: -8°   Visibility: 6mi
Dew Point: -11°   Wind: 2mph
Humidity: 79%   Direction: 280°W
Pressure: 29.35"   Gusts: NA
Location:  53.8°N, 113.65°W
Report Text: CYED 211800Z AUTO 28002KT 6SM FEW074 SCT084 M08/M11 A2935 RMKSLP978
Loading
Personal Weather Stations






























Interactive Weather Map New forecast layout! Learn more

10-Day Weather Forecast

Advertisements
Track Severe Weather on mobile